createdAt,value
2022-08-12T00:00:04.033Z,2.23
2022-08-12T00:02:49.587Z,2.33
2022-08-12T00:05:38.309Z,2.03
2022-08-12T00:08:44.275Z,1.93
2022-08-12T00:11:32.157Z,2.17
2022-08-12T00:14:18.216Z,2.10
2022-08-12T00:17:04.381Z,2.60
2022-08-12T00:19:50.027Z,2.80
2022-08-12T00:22:36.214Z,2.37
2022-08-12T00:26:01.291Z,2.40
2022-08-12T00:28:29.981Z,2.37
2022-08-12T00:31:15.695Z,2.53
2022-08-12T00:34:01.339Z,2.90
2022-08-12T00:36:50.269Z,3.00
2022-08-12T00:39:36.212Z,2.90
2022-08-12T00:42:12.925Z,2.57
2022-08-12T00:44:45.476Z,2.30
2022-08-12T00:47:24.827Z,2.33
2022-08-12T00:49:54.818Z,2.20
2022-08-12T00:52:23.788Z,2.40
2022-08-12T00:54:53.708Z,2.87
2022-08-12T00:57:23.921Z,4.43
2022-08-12T00:59:58.613Z,5.93
2022-08-12T01:02:28.664Z,7.57
2022-08-12T01:05:16.525Z,7.60
2022-08-12T01:08:03.029Z,8.53
2022-08-12T01:10:50.211Z,8.23
2022-08-12T01:13:20.497Z,8.90
2022-08-12T01:15:51.768Z,8.20
2022-08-12T01:18:22.283Z,7.47
2022-08-12T01:20:59.570Z,6.47
2022-08-12T01:23:42.185Z,5.00
2022-08-12T01:26:14.532Z,4.07
2022-08-12T01:28:45.166Z,3.60
2022-08-12T01:31:16.502Z,3.40
2022-08-12T01:33:53.476Z,3.00
2022-08-12T01:36:25.866Z,2.70
2022-08-12T01:38:56.428Z,2.90
2022-08-12T01:41:29.692Z,2.80
2022-08-12T01:44:00.992Z,2.70
2022-08-12T01:46:40.627Z,3.10
2022-08-12T01:49:31.661Z,3.83
2022-08-12T01:54:45.627Z,6.17
2022-08-12T01:57:59.358Z,7.10
2022-08-12T02:00:13.715Z,9.43
2022-08-12T02:02:48.744Z,8.60
2022-08-12T02:06:00.078Z,7.73
2022-08-12T02:08:52.437Z,10.43
2022-08-12T02:11:25.518Z,8.80
2022-08-12T02:14:30.134Z,7.80
2022-08-12T02:17:28.314Z,6.20
2022-08-12T02:20:21.837Z,6.17
2022-08-12T02:22:51.770Z,5.70
2022-08-12T02:25:24.083Z,6.07
2022-08-12T02:27:54.640Z,7.30
2022-08-12T02:30:25.582Z,6.70
2022-08-12T02:33:05.860Z,6.70
2022-08-12T02:35:36.277Z,5.87
2022-08-12T02:38:08.920Z,5.23
2022-08-12T02:40:39.172Z,5.83
2022-08-12T02:43:18.286Z,5.10
2022-08-12T02:45:51.241Z,4.40
2022-08-12T02:48:26.293Z,4.83
2022-08-12T02:50:57.675Z,5.37
2022-08-12T02:53:27.906Z,4.60
2022-08-12T02:55:56.529Z,4.10
2022-08-12T02:58:33.300Z,4.43
2022-08-12T03:01:05.429Z,3.80
2022-08-12T03:03:35.306Z,4.30
2022-08-12T03:06:07.108Z,4.50
2022-08-12T03:08:41.114Z,3.63
2022-08-12T03:11:16.198Z,3.03
2022-08-12T03:13:48.415Z,3.37
2022-08-12T03:16:19.512Z,4.00
2022-08-12T03:18:48.010Z,4.20
2022-08-12T03:22:05.706Z,3.07
2022-08-12T03:24:08.936Z,7.93
2022-08-12T03:26:38.001Z,3.13
2022-08-12T03:29:07.621Z,2.70
2022-08-12T03:31:37.187Z,2.80
2022-08-12T03:34:08.027Z,3.03
2022-08-12T03:36:40.165Z,2.60
2022-08-12T03:39:35.926Z,2.90
2022-08-12T03:42:28.455Z,2.80
2022-08-12T03:45:35.896Z,2.30
2022-08-12T03:48:39.316Z,3.83
2022-08-12T03:51:26.475Z,3.60
2022-08-12T03:54:12.411Z,2.70
2022-08-12T03:56:58.512Z,2.30
2022-08-12T03:59:44.856Z,2.23
2022-08-12T04:02:15.852Z,3.10
2022-08-12T04:04:46.656Z,2.70
2022-08-12T04:07:16.360Z,2.70
2022-08-12T04:09:45.775Z,2.43
2022-08-12T04:12:33.027Z,2.70
2022-08-12T04:15:02.126Z,2.40
2022-08-12T04:17:30.366Z,2.77
2022-08-12T04:20:00.688Z,2.87
2022-08-12T04:22:30.666Z,2.57
2022-08-12T04:25:01.355Z,2.90
2022-08-12T04:27:31.647Z,2.70
2022-08-12T04:30:21.315Z,2.87
2022-08-12T04:32:50.699Z,2.40
2022-08-12T04:35:20.112Z,2.50
2022-08-12T04:37:58.402Z,2.30
2022-08-12T04:40:31.581Z,2.27
2022-08-12T04:43:01.086Z,2.43
2022-08-12T04:45:30.146Z,3.20
2022-08-12T04:47:58.358Z,2.17
2022-08-12T04:50:35.230Z,2.30
2022-08-12T04:53:06.053Z,2.43
2022-08-12T04:55:35.644Z,2.20
2022-08-12T04:58:03.746Z,2.20
2022-08-12T05:00:31.682Z,2.15
2022-08-12T05:02:59.730Z,2.65
2022-08-12T05:05:35.729Z,2.05
2022-08-12T05:08:07.901Z,2.42
2022-08-12T05:10:36.271Z,2.88
2022-08-12T05:13:07.039Z,2.22
2022-08-12T05:15:36.024Z,2.67
2022-08-12T05:18:19.663Z,2.70
2022-08-12T05:20:50.450Z,3.65
2022-08-12T05:23:22.615Z,2.97
2022-08-12T05:25:56.462Z,2.50
2022-08-12T05:28:26.159Z,2.20
2022-08-12T05:30:55.181Z,2.17
2022-08-12T05:33:31.510Z,2.38
2022-08-12T05:36:00.826Z,2.53
2022-08-12T05:38:46.528Z,2.65
2022-08-12T05:41:20.402Z,2.60
2022-08-12T05:43:51.215Z,2.40
2022-08-12T05:46:19.598Z,2.55
2022-08-12T05:48:47.873Z,2.13
2022-08-12T05:51:17.771Z,2.10
2022-08-12T05:53:45.819Z,2.35
2022-08-12T05:56:22.293Z,1.98
2022-08-12T05:58:51.212Z,2.30
2022-08-12T06:02:09.314Z,1.90
2022-08-12T06:04:08.670Z,2.45
2022-08-12T06:06:41.805Z,2.65
2022-08-12T06:09:11.480Z,2.08
2022-08-12T06:12:04.253Z,2.30
2022-08-12T06:14:30.958Z,2.15
2022-08-12T06:17:00.054Z,2.05
2022-08-12T06:20:22.810Z,1.95
2022-08-12T06:22:19.095Z,2.45
2022-08-12T06:24:48.503Z,2.00
2022-08-12T06:27:18.929Z,2.30
2022-08-12T06:30:09.585Z,1.80
2022-08-12T06:32:35.516Z,2.00
2022-08-12T06:35:23.055Z,1.85
2022-08-12T06:37:57.293Z,2.33
2022-08-12T06:40:40.524Z,1.77
2022-08-12T06:43:09.695Z,2.45
2022-08-12T06:45:46.877Z,1.92
2022-08-12T06:48:16.538Z,1.90
2022-08-12T06:50:44.543Z,2.22
2022-08-12T06:53:14.138Z,2.15
2022-08-12T06:55:56.695Z,2.35
2022-08-12T06:58:26.521Z,2.03
2022-08-12T07:00:55.972Z,1.92
2022-08-12T07:03:27.671Z,2.50
2022-08-12T07:05:56.340Z,2.50
2022-08-12T07:08:27.389Z,2.15
2022-08-12T07:10:59.299Z,1.88
2022-08-12T07:13:28.697Z,2.00
2022-08-12T07:15:56.894Z,1.90
2022-08-12T07:18:30.263Z,1.40
2022-08-12T07:20:58.746Z,1.75
2022-08-12T07:23:28.835Z,1.73
2022-08-12T07:25:58.458Z,1.75
2022-08-12T07:28:31.003Z,1.98
2022-08-12T07:30:59.503Z,2.40
2022-08-12T07:33:29.411Z,1.77
2022-08-12T07:35:59.075Z,1.90
2022-08-12T07:38:31.551Z,1.55
2022-08-12T07:41:03.978Z,2.10
2022-08-12T07:43:33.879Z,1.63
2022-08-12T07:46:02.952Z,2.08
2022-08-12T07:48:38.091Z,1.80
2022-08-12T07:51:06.568Z,2.17
2022-08-12T07:53:47.766Z,2.15
2022-08-12T07:56:25.166Z,1.90
2022-08-12T07:58:53.419Z,2.13
2022-08-12T08:01:22.840Z,1.67
2022-08-12T08:04:15.154Z,2.50
2022-08-12T08:06:47.060Z,2.17
2022-08-12T08:09:19.045Z,2.42
2022-08-12T08:12:04.799Z,2.03
2022-08-12T08:14:32.949Z,1.90
2022-08-12T08:17:06.812Z,1.80
2022-08-12T08:20:03.252Z,1.95
2022-08-12T08:22:24.989Z,2.00
2022-08-12T08:25:35.073Z,1.60
2022-08-12T08:28:01.069Z,1.90
2022-08-12T08:30:30.656Z,1.58
2022-08-12T08:32:59.460Z,2.15
2022-08-12T08:35:46.916Z,2.08
2022-08-12T08:38:30.773Z,1.80
2022-08-12T08:42:17.882Z,1.73
2022-08-12T08:44:10.750Z,1.58
2022-08-12T08:46:39.840Z,1.70
2022-08-12T08:49:08.853Z,1.88
2022-08-12T08:51:37.581Z,1.60
2022-08-12T08:54:06.930Z,1.75
2022-08-12T08:56:43.929Z,1.50
2022-08-12T08:59:12.792Z,1.75
2022-08-12T09:01:40.953Z,1.83
2022-08-12T09:05:11.313Z,1.50
2022-08-12T09:07:17.408Z,1.90
2022-08-12T09:13:00.779Z,1.52
2022-08-12T09:15:35.268Z,1.13
2022-08-12T09:18:08.575Z,1.65
2022-08-12T09:20:39.724Z,1.50
2022-08-12T09:23:57.143Z,1.63
2022-08-12T09:28:53.177Z,1.40
2022-08-12T09:32:07.279Z,1.67
2022-08-12T09:34:26.738Z,1.60
2022-08-12T09:37:02.411Z,1.50
2022-08-12T09:40:06.286Z,4.35
2022-08-12T09:43:15.195Z,1.50
2022-08-12T09:46:11.126Z,1.45
2022-08-12T09:48:36.261Z,2.10
2022-08-12T09:51:17.190Z,1.90
2022-08-12T09:54:08.909Z,2.22
2022-08-12T09:57:02.777Z,1.58
2022-08-12T10:00:12.953Z,1.42
2022-08-12T10:02:43.997Z,1.35
2022-08-12T10:05:13.910Z,1.70
2022-08-12T10:07:46.076Z,1.30
2022-08-12T10:10:24.189Z,1.40
2022-08-12T10:13:12.350Z,1.67
2022-08-12T10:16:02.895Z,1.65
2022-08-12T10:18:36.568Z,1.55
2022-08-12T10:21:23.247Z,1.38
2022-08-12T10:23:55.169Z,1.30
2022-08-12T10:26:44.634Z,1.88
2022-08-12T10:30:02.902Z,1.83
2022-08-12T10:32:45.239Z,1.85
2022-08-12T10:35:15.226Z,1.35
2022-08-12T10:38:33.758Z,1.90
2022-08-12T10:40:37.646Z,1.40
2022-08-12T10:43:23.784Z,1.35
2022-08-12T10:45:58.337Z,1.40
2022-08-12T10:48:33.986Z,1.63
2022-08-12T10:52:03.780Z,1.60
2022-08-12T10:54:00.275Z,1.70
2022-08-12T10:56:34.954Z,1.70
2022-08-12T10:59:03.867Z,1.50
2022-08-12T11:04:14.413Z,1.58
2022-08-12T11:04:39.425Z,1.40
2022-08-12T11:08:36.035Z,1.55
2022-08-12T11:10:01.881Z,1.55
2022-08-12T11:12:55.865Z,1.25
2022-08-12T11:15:33.568Z,1.40
2022-08-12T11:18:11.967Z,1.40
2022-08-12T11:20:47.482Z,1.70
2022-08-12T11:23:25.150Z,1.52
2022-08-12T11:26:07.062Z,1.75
2022-08-12T11:28:37.580Z,1.40
2022-08-12T11:31:09.838Z,1.27
2022-08-12T11:34:05.750Z,1.50
2022-08-12T11:36:29.089Z,1.70
2022-08-12T11:38:58.458Z,1.13
2022-08-12T11:41:32.940Z,1.20
2022-08-12T11:44:02.021Z,1.65
2022-08-12T11:46:52.447Z,1.10
2022-08-12T11:49:31.579Z,1.00
2022-08-12T11:52:02.374Z,1.27
2022-08-12T11:54:33.525Z,1.23
2022-08-12T11:58:07.568Z,1.30
2022-08-12T12:02:43.618Z,1.10
2022-08-12T12:05:16.667Z,1.50
2022-08-12T12:08:40.411Z,1.63
2022-08-12T12:10:36.830Z,1.02
2022-08-12T12:13:22.841Z,0.95
2022-08-12T12:15:51.684Z,1.00
2022-08-12T12:18:30.927Z,1.30
2022-08-12T12:21:01.139Z,1.00
2022-08-12T12:23:36.157Z,10.38
2022-08-12T12:26:09.874Z,1.65
2022-08-12T12:28:56.546Z,1.90
2022-08-12T12:32:11.415Z,1.40
2022-08-12T12:34:30.709Z,1.25
2022-08-12T12:37:00.821Z,1.92
2022-08-12T12:39:29.422Z,1.27
2022-08-12T12:42:45.299Z,1.35
2022-08-12T12:45:19.381Z,1.00
2022-08-12T12:47:58.906Z,1.10
2022-08-12T12:50:35.147Z,1.30
2022-08-12T12:53:03.896Z,1.67
2022-08-12T12:55:36.013Z,1.20
2022-08-12T12:58:11.303Z,1.35
2022-08-12T13:00:41.824Z,1.60
2022-08-12T13:03:19.716Z,1.60
2022-08-12T13:05:53.896Z,1.50
2022-08-12T13:08:28.328Z,0.90
2022-08-12T13:11:05.809Z,1.20
2022-08-12T13:14:10.254Z,2.30
2022-08-12T13:16:26.649Z,1.33
2022-08-12T13:18:57.293Z,0.90
2022-08-12T13:21:32.889Z,1.30
2022-08-12T13:24:02.627Z,1.48
2022-08-12T13:26:40.117Z,1.13
2022-08-12T13:29:11.203Z,1.20
2022-08-12T13:31:46.367Z,1.27
2022-08-12T13:34:34.237Z,1.20
2022-08-12T13:37:04.463Z,1.20
2022-08-12T13:39:37.231Z,1.10
2022-08-12T13:42:14.300Z,1.50
2022-08-12T13:44:46.344Z,1.00
2022-08-12T13:47:19.733Z,1.35
2022-08-12T13:49:54.007Z,1.23
2022-08-12T13:52:23.777Z,1.30
2022-08-12T13:54:56.207Z,1.33
2022-08-12T13:57:26.481Z,1.40
2022-08-12T14:00:00.882Z,1.48
2022-08-12T14:02:29.868Z,1.33
2022-08-12T14:04:58.122Z,1.25
2022-08-12T14:07:27.503Z,1.23
2022-08-12T14:10:16.138Z,0.80
2022-08-12T14:12:54.392Z,1.02
2022-08-12T14:15:26.690Z,1.00
2022-08-12T14:18:10.137Z,1.30
2022-08-12T14:20:43.747Z,1.23
2022-08-12T14:24:05.386Z,1.20
2022-08-12T14:26:11.850Z,1.20
2022-08-12T14:28:45.211Z,1.17
2022-08-12T14:31:31.933Z,1.17
2022-08-12T14:34:04.773Z,1.35
2022-08-12T14:36:33.087Z,1.30
2022-08-12T14:39:06.115Z,1.00
2022-08-12T14:41:37.203Z,1.42
2022-08-12T14:44:59.706Z,1.52
2022-08-12T14:47:07.629Z,1.35
2022-08-12T14:50:34.392Z,0.95
2022-08-12T14:53:13.362Z,1.38
2022-08-12T14:58:03.338Z,1.23
2022-08-12T15:00:52.470Z,1.40
2022-08-12T15:03:52.330Z,0.90
2022-08-12T15:06:39.038Z,1.10
2022-08-12T15:09:08.022Z,1.42
2022-08-12T15:11:54.486Z,1.60
2022-08-12T15:14:25.558Z,1.35
2022-08-12T15:16:54.202Z,1.40
2022-08-12T15:20:31.858Z,1.15
2022-08-12T15:22:39.647Z,1.17
2022-08-12T15:24:59.836Z,1.50
2022-08-12T15:28:03.310Z,1.80
2022-08-12T15:30:22.626Z,1.30
2022-08-12T15:32:51.244Z,1.27
2022-08-12T15:35:21.133Z,1.20
2022-08-12T15:38:11.249Z,1.23
2022-08-12T15:40:48.307Z,1.27
2022-08-12T15:43:50.914Z,1.10
2022-08-12T15:46:06.814Z,1.38
2022-08-12T15:48:35.231Z,1.40
2022-08-12T15:51:05.763Z,1.40
2022-08-12T15:53:54.628Z,1.10
2022-08-12T15:56:29.405Z,1.10
2022-08-12T15:58:59.458Z,1.30
2022-08-12T16:01:35.541Z,1.30
2022-08-12T16:04:17.062Z,1.58
2022-08-12T16:09:56.571Z,1.10
2022-08-12T16:12:23.001Z,1.23
2022-08-12T16:14:55.031Z,1.40
2022-08-12T16:18:09.022Z,1.58
2022-08-12T16:20:21.115Z,1.40
2022-08-12T16:22:54.500Z,1.50
2022-08-12T16:25:23.166Z,1.75
2022-08-12T16:28:12.507Z,1.70
2022-08-12T16:30:44.486Z,1.50
2022-08-12T16:33:19.538Z,1.77
2022-08-12T16:35:49.913Z,1.80
2022-08-12T16:38:28.688Z,1.13
2022-08-12T16:40:57.021Z,1.15
2022-08-12T16:43:26.262Z,1.30
2022-08-12T16:46:08.008Z,1.50
2022-08-12T16:48:43.599Z,1.23
2022-08-12T16:51:12.885Z,1.80
2022-08-12T16:53:45.554Z,2.10
2022-08-12T16:56:15.643Z,1.40
2022-08-12T16:58:45.107Z,1.48
2022-08-12T17:01:14.683Z,1.52
2022-08-12T17:03:52.250Z,1.63
2022-08-12T17:06:27.406Z,1.50
2022-08-12T17:09:02.631Z,1.15
2022-08-12T17:11:31.758Z,1.20
2022-08-12T17:14:00.116Z,0.93
2022-08-12T17:16:30.027Z,1.33
2022-08-12T17:19:03.117Z,1.70
2022-08-12T17:21:40.021Z,1.40
2022-08-12T17:24:15.011Z,1.60
2022-08-12T17:26:49.274Z,1.77
2022-08-12T17:29:23.981Z,1.92
2022-08-12T17:32:11.084Z,1.70
2022-08-12T17:34:56.915Z,1.45
2022-08-12T17:37:25.171Z,1.50
2022-08-12T17:40:15.358Z,1.67
2022-08-12T17:42:43.676Z,1.77
2022-08-12T17:45:19.485Z,1.70
2022-08-12T17:48:01.869Z,1.45
2022-08-12T17:50:35.903Z,1.05
2022-08-12T17:53:04.998Z,1.40
2022-08-12T17:55:40.380Z,1.30
2022-08-12T17:58:14.262Z,1.20
2022-08-12T18:00:45.494Z,1.50
2022-08-12T18:04:04.884Z,1.55
2022-08-12T18:06:13.989Z,1.10
2022-08-12T18:08:53.681Z,1.30
2022-08-12T18:12:06.323Z,1.13
2022-08-12T18:14:31.888Z,1.73
2022-08-12T18:17:02.433Z,1.80
2022-08-12T18:19:34.172Z,1.43
2022-08-12T18:22:22.215Z,1.50
2022-08-12T18:25:03.684Z,1.20
2022-08-12T18:27:47.094Z,1.43
2022-08-12T18:30:29.437Z,1.17
2022-08-12T18:33:03.921Z,1.33
2022-08-12T18:35:47.846Z,1.13
2022-08-12T18:38:22.307Z,1.33
2022-08-12T18:41:10.286Z,1.10
2022-08-12T18:43:58.807Z,1.50
2022-08-12T18:46:34.897Z,1.47
2022-08-12T18:49:17.579Z,1.90
2022-08-12T18:51:55.013Z,1.70
2022-08-12T18:54:26.757Z,1.70
2022-08-12T18:56:56.298Z,1.30
2022-08-12T19:00:00.274Z,1.50
2022-08-12T19:02:22.708Z,1.77
2022-08-12T19:04:53.375Z,3.20
2022-08-12T19:07:24.205Z,1.60
2022-08-12T19:09:58.848Z,1.50
2022-08-12T19:12:55.503Z,1.10
2022-08-12T19:15:29.827Z,1.40
2022-08-12T19:18:00.897Z,1.70
2022-08-12T19:20:31.724Z,1.27
2022-08-12T19:23:07.199Z,1.10
2022-08-12T19:26:01.207Z,1.80
2022-08-12T19:28:30.381Z,2.00
2022-08-12T19:31:57.361Z,2.00
2022-08-12T19:37:17.153Z,1.80
2022-08-12T19:40:09.950Z,2.10
2022-08-12T19:42:36.169Z,1.80
2022-08-12T19:45:12.347Z,1.30
2022-08-12T19:47:43.431Z,1.60
2022-08-12T19:50:12.129Z,1.50
2022-08-12T19:52:40.830Z,1.13
2022-08-12T19:55:19.462Z,1.20
2022-08-12T19:58:01.489Z,1.67
2022-08-12T20:00:35.403Z,1.27
2022-08-12T20:03:09.081Z,1.47
2022-08-12T20:06:06.840Z,1.20
2022-08-12T20:08:39.590Z,1.50
2022-08-12T20:12:13.643Z,2.33
2022-08-12T20:14:06.635Z,1.70
2022-08-12T20:16:57.164Z,2.27
2022-08-12T20:19:52.447Z,1.83
2022-08-12T20:22:24.837Z,1.93
2022-08-12T20:25:00.881Z,2.47
2022-08-12T20:28:05.037Z,2.20
2022-08-12T20:30:52.360Z,1.63
2022-08-12T20:33:17.774Z,1.50
2022-08-12T20:36:12.890Z,1.47
2022-08-12T20:38:39.532Z,1.63
2022-08-12T20:41:17.810Z,1.80
2022-08-12T20:43:50.708Z,1.70
2022-08-12T20:46:20.753Z,1.77
2022-08-12T20:48:54.539Z,1.77
2022-08-12T20:51:24.730Z,2.00
2022-08-12T20:53:58.614Z,2.30
2022-08-12T20:56:33.036Z,2.10
2022-08-12T20:59:04.508Z,2.00
2022-08-12T21:01:46.230Z,1.87
2022-08-12T21:04:37.839Z,1.80
2022-08-12T21:07:11.453Z,1.70
2022-08-12T21:09:42.458Z,2.10
2022-08-12T21:12:24.782Z,2.30
2022-08-12T21:15:17.555Z,1.87
2022-08-12T21:18:11.118Z,1.67
2022-08-12T21:20:54.572Z,1.83
2022-08-12T21:23:25.675Z,1.33
2022-08-12T21:26:02.002Z,1.90
2022-08-12T21:28:33.440Z,1.70
2022-08-12T21:34:08.171Z,2.40
2022-08-12T21:36:48.566Z,1.83
2022-08-12T21:39:27.871Z,1.80
2022-08-12T21:42:06.876Z,1.90
2022-08-12T21:45:44.171Z,2.20
2022-08-12T21:47:32.488Z,1.83
2022-08-12T21:50:13.544Z,2.00
2022-08-12T21:52:48.762Z,1.53
2022-08-12T21:55:20.346Z,1.93
2022-08-12T21:57:54.064Z,1.80
2022-08-12T22:00:34.400Z,1.80
2022-08-12T22:04:01.863Z,1.93
2022-08-12T22:06:40.654Z,1.90
2022-08-12T22:09:16.491Z,2.00
2022-08-12T22:11:49.121Z,1.93
2022-08-12T22:14:25.342Z,2.00
2022-08-12T22:16:58.388Z,2.13
2022-08-12T22:19:26.993Z,2.20
2022-08-12T22:21:58.763Z,1.60
2022-08-12T22:24:29.441Z,2.43
2022-08-12T22:26:59.532Z,2.43
2022-08-12T22:30:04.148Z,2.50
2022-08-12T22:32:33.677Z,2.20
2022-08-12T22:35:22.427Z,2.53
2022-08-12T22:37:58.589Z,2.35
2022-08-12T22:40:26.577Z,2.00
2022-08-12T22:43:15.829Z,2.40
2022-08-12T22:46:01.813Z,2.60
2022-08-12T22:48:30.579Z,2.40
2022-08-12T22:50:59.119Z,2.10
2022-08-12T22:53:36.318Z,2.87
2022-08-12T22:56:08.017Z,2.20
2022-08-12T22:58:40.451Z,2.43
2022-08-12T23:01:21.251Z,1.93
2022-08-12T23:07:05.467Z,2.17
2022-08-12T23:09:48.109Z,2.10
2022-08-12T23:12:47.034Z,1.90
2022-08-12T23:15:17.461Z,2.10
2022-08-12T23:17:47.216Z,2.03
2022-08-12T23:20:15.187Z,1.80
2022-08-12T23:23:05.900Z,1.80
2022-08-12T23:25:55.514Z,2.10
2022-08-12T23:28:38.436Z,2.03
2022-08-12T23:31:11.716Z,2.20
2022-08-12T23:34:02.191Z,2.40
2022-08-12T23:36:39.067Z,2.20
2022-08-12T23:40:14.204Z,1.67
2022-08-12T23:42:18.257Z,2.50
2022-08-12T23:44:52.727Z,2.53
2022-08-12T23:47:23.040Z,1.87
2022-08-12T23:49:57.138Z,2.20
2022-08-12T23:52:34.265Z,2.03
2022-08-12T23:55:06.970Z,2.50
2022-08-12T23:58:21.854Z,2.80
